Time;durP1;ratioP1;P1;durP2;ratioP2;P2;SDS_P1;SDS_P2;PMS_P1;PMS_P2;Temp;Humidity;BMP_temperature;BMP_pressure;BME280_temperature;BME280_humidity;BME280_pressure;Samples;Min_cycle;Max_cycle;Signal;HPM_P1;HPM_P2
2023/07/26 00:01:43;;;;;;;18.42;16.60;;;;;;;-145.63;62.63;38721.13;5060877;28;20052;-68
2023/07/26 00:04:09;;;;;;;20.67;18.48;;;;;;;-145.63;62.58;38736.78;5052639;28;20121;-67
2023/07/26 00:06:35;;;;;;;20.00;17.88;;;;;;;-145.63;62.69;38732.88;5052448;28;20043;-67
2023/07/26 00:09:01;;;;;;;18.67;16.73;;;;;;;-145.63;62.54;38721.13;5062294;28;20131;-66
2023/07/26 00:11:26;;;;;;;19.15;16.98;;;;;;;-145.63;62.44;38721.13;5053815;28;20066;-67
2023/07/26 00:13:52;;;;;;;26.02;20.95;;;;;;;-145.63;62.34;38773.94;5046895;28;20025;-68
2023/07/26 00:16:18;;;;;;;22.23;19.52;;;;;;;-145.63;62.27;38680.06;5044922;28;20017;-68
2023/07/26 00:18:43;;;;;;;25.83;20.63;;;;;;;-145.63;62.59;38707.44;5052980;28;20031;-68
2023/07/26 00:21:09;;;;;;;23.08;20.67;;;;;;;-145.63;62.51;38732.88;5064551;28;20036;-67
2023/07/26 00:23:35;;;;;;;23.20;20.73;;;;;;;-145.63;62.26;38719.19;5049037;28;20029;-67
2023/07/26 00:26:02;;;;;;;22.08;19.63;;;;;;;-145.63;62.31;38740.69;5063543;28;20094;-67
2023/07/26 00:28:29;;;;;;;24.40;19.10;;;;;;;-145.63;62.57;38730.91;5064972;28;20028;-68
2023/07/26 00:30:54;;;;;;;23.33;20.45;;;;;;;-145.63;63.14;38770.03;5060575;28;20044;-67
2023/07/26 00:33:20;;;;;;;23.77;19.67;;;;;;;-145.63;62.93;38783.72;5064965;28;20092;-68
2023/07/26 00:35:46;;;;;;;24.75;20.58;;;;;;;-145.63;62.70;38773.94;5064374;28;20253;-69
2023/07/26 00:38:11;;;;;;;25.92;19.70;;;;;;;-145.63;62.84;38785.66;5044322;28;20025;-69
2023/07/26 00:40:39;;;;;;;25.38;19.48;;;;;;;-145.63;62.85;38660.53;5055002;28;20025;-69
2023/07/26 00:43:05;;;;;;;21.38;17.23;;;;;;;-145.63;63.16;38758.28;5044678;28;20029;-69
2023/07/26 00:45:35;;;;;;;20.55;17.85;;;;;;;-145.63;63.30;37997.69;5043467;28;20025;-69
2023/07/26 00:48:02;;;;;;;23.50;20.05;;;;;;;-145.63;63.24;38760.25;5046749;28;20025;-69
2023/07/26 00:50:27;;;;;;;18.05;16.13;;;;;;;-145.63;62.87;38785.66;5064252;28;20041;-69
2023/07/26 00:52:54;;;;;;;20.20;16.17;;;;;;;-145.63;63.05;38777.84;5064103;28;20048;-69
2023/07/26 00:55:20;;;;;;;16.88;15.05;;;;;;;-145.63;62.86;38773.94;5050909;28;20033;-70
2023/07/26 00:57:46;;;;;;;20.40;16.08;;;;;;;-145.63;62.66;38750.47;5054522;28;20352;-69
2023/07/26 01:00:13;;;;;;;20.00;15.02;;;;;;;-145.63;63.03;38789.59;5060374;28;20029;-68
2023/07/26 01:02:39;;;;;;;19.83;16.77;;;;;;;-145.63;63.22;38781.75;5044010;28;20273;-68
2023/07/26 01:05:07;;;;;;;22.33;16.48;;;;;;;-145.63;62.77;38752.44;5043588;28;20025;-68
2023/07/26 01:07:47;;;;;;;20.02;14.77;;;;;;;-145.63;62.72;38762.22;5058650;28;20024;-68
2023/07/26 01:10:29;;;;;;;22.65;16.60;;;;;;;-145.63;63.41;38809.13;5051880;28;20059;-68
2023/07/26 01:13:04;;;;;;;20.10;15.82;;;;;;;-145.63;63.14;38938.19;5052334;28;20285;-69
2023/07/26 01:15:36;;;;;;;17.23;13.45;;;;;;;-145.63;63.03;38177.56;5064274;28;20029;-69
2023/07/26 01:18:10;;;;;;;16.55;13.20;;;;;;;-145.63;62.50;38785.66;5060202;28;20295;-68
2023/07/26 01:20:36;;;;;;;22.15;16.08;;;;;;;-145.63;62.75;38773.94;5044015;28;20067;-69
2023/07/26 01:23:02;;;;;;;15.95;13.32;;;;;;;-145.63;63.01;38801.31;5043828;28;20057;-69
2023/07/26 01:25:28;;;;;;;20.65;16.00;;;;;;;-145.63;63.26;38764.16;5057637;28;20109;-68
2023/07/26 01:27:53;;;;;;;17.23;15.27;;;;;;;-145.63;63.26;38797.41;5054066;28;20473;-69
2023/07/26 01:30:19;;;;;;;18.90;14.00;;;;;;;-145.63;62.84;38846.28;5044596;28;20033;-69
2023/07/26 01:32:50;;;;;;;18.45;15.57;;;;;;;-145.63;63.37;38834.56;5063313;28;20021;-68
2023/07/26 01:35:19;;;;;;;19.53;15.00;;;;;;;-145.63;63.41;38828.69;5043708;28;20036;-69
2023/07/26 01:37:45;;;;;;;19.08;15.40;;;;;;;-145.63;63.60;38795.44;5059870;28;20430;-69
2023/07/26 01:40:12;;;;;;;18.10;16.20;;;;;;;-145.63;63.87;38818.91;5052520;28;20140;-68
2023/07/26 01:42:39;;;;;;;17.33;14.98;;;;;;;-145.63;63.51;38813.03;5055145;28;20033;-66
2023/07/26 01:45:05;;;;;;;15.63;14.10;;;;;;;-145.63;62.99;38820.88;5043578;28;20025;-67
2023/07/26 01:47:30;;;;;;;18.10;14.43;;;;;;;-145.63;62.72;38805.22;5043510;28;20025;-67
2023/07/26 01:49:56;;;;;;;18.08;14.07;;;;;;;-145.63;62.79;38783.72;5061696;28;20056;-68
2023/07/26 01:52:23;;;;;;;18.98;14.40;;;;;;;-145.63;62.59;38813.03;5050149;28;20089;-68
2023/07/26 01:54:49;;;;;;;14.93;13.52;;;;;;;-145.63;62.46;38773.94;5051202;28;20028;-66
2023/07/26 01:57:14;;;;;;;15.07;13.57;;;;;;;-145.63;62.30;38793.50;5059014;28;20218;-68
2023/07/26 01:59:40;;;;;;;18.48;13.43;;;;;;;-145.63;62.70;38787.63;5043013;28;20097;-67
2023/07/26 02:02:06;;;;;;;17.20;15.05;;;;;;;-145.63;62.60;38813.03;5061796;28;20049;-66
2023/07/26 02:04:32;;;;;;;21.50;16.55;;;;;;;-145.63;62.92;38781.75;5048991;28;20041;-67
2023/07/26 02:06:57;;;;;;;16.05;14.35;;;;;;;-145.63;62.80;38779.81;5052251;28;20040;-68
2023/07/26 02:09:23;;;;;;;19.25;15.30;;;;;;;-145.63;63.12;38773.94;5058752;28;20061;-68
2023/07/26 02:11:49;;;;;;;16.63;14.85;;;;;;;-145.63;62.87;38789.59;5041768;28;20026;-67
2023/07/26 02:14:16;;;;;;;17.17;14.73;;;;;;;-145.63;62.58;38830.66;5042957;28;20029;-68
2023/07/26 02:16:42;;;;;;;16.77;14.70;;;;;;;-145.63;62.71;38801.31;5058174;28;20020;-68
2023/07/26 02:19:08;;;;;;;16.33;14.68;;;;;;;-145.63;62.65;38795.44;5060776;28;20098;-68
2023/07/26 02:21:33;;;;;;;18.77;16.65;;;;;;;-145.63;62.80;38781.75;5061814;28;20201;-68
2023/07/26 02:23:59;;;;;;;17.00;15.20;;;;;;;-145.63;63.04;38779.81;5061610;28;20381;-69
2023/07/26 02:26:25;;;;;;;20.83;17.65;;;;;;;-145.63;63.04;38789.59;5042760;28;20054;-68
2023/07/26 02:28:50;;;;;;;23.15;17.73;;;;;;;-145.63;63.14;38777.84;5042680;28;20036;-69
2023/07/26 02:31:17;;;;;;;17.42;15.63;;;;;;;-145.63;63.14;38771.97;5054442;28;20040;-68
2023/07/26 02:33:43;;;;;;;21.25;18.02;;;;;;;-145.63;63.28;38793.50;5055898;28;20067;-68
2023/07/26 02:36:09;;;;;;;21.10;18.92;;;;;;;-145.63;64.02;38797.41;5048829;28;20037;-68
2023/07/26 02:38:34;;;;;;;21.73;19.30;;;;;;;-145.63;64.17;38775.91;5062562;28;20029;-69
2023/07/26 02:41:00;;;;;;;19.20;17.15;;;;;;;-145.63;63.76;38771.97;5053130;28;20248;-68
2023/07/26 02:43:26;;;;;;;22.55;17.80;;;;;;;-145.63;63.62;38793.50;5062896;28;20029;-69
2023/07/26 02:45:52;;;;;;;20.08;17.63;;;;;;;-145.63;64.14;38793.50;5054476;28;20033;-68
2023/07/26 02:48:17;;;;;;;21.38;18.63;;;;;;;-145.63;64.51;38797.41;5046044;28;20221;-68
2023/07/26 02:50:43;;;;;;;23.45;19.27;;;;;;;-145.63;64.44;38807.19;5062653;28;20029;-69
2023/07/26 02:53:09;;;;;;;21.75;19.38;;;;;;;-145.63;64.55;38793.50;5046396;28;20183;-69
2023/07/26 02:55:34;;;;;;;25.55;22.55;;;;;;;-145.63;64.64;38758.28;5050559;28;20025;-69
2023/07/26 02:58:01;;;;;;;23.90;19.85;;;;;;;-145.63;64.87;38834.56;5066118;28;20036;-68
2023/07/26 03:00:27;;;;;;;20.60;18.45;;;;;;;-145.63;64.81;38748.50;5061491;28;20045;-67
2023/07/26 03:02:53;;;;;;;22.05;19.45;;;;;;;-145.63;64.71;38797.41;5046188;28;20056;-68
2023/07/26 03:05:18;;;;;;;24.50;19.30;;;;;;;-145.63;64.57;38773.94;5066564;28;20067;-69
2023/07/26 03:07:44;;;;;;;20.75;17.63;;;;;;;-145.63;64.17;38754.38;5051353;28;20026;-69
2023/07/26 03:10:09;;;;;;;19.60;17.70;;;;;;;-145.63;63.80;38738.75;5056559;28;20558;-69
2023/07/26 03:12:35;;;;;;;23.92;18.02;;;;;;;-145.63;63.91;38750.47;5060578;28;20072;-69
2023/07/26 03:15:01;;;;;;;20.13;18.08;;;;;;;-145.63;63.70;38707.44;5046341;28;20060;-68
2023/07/26 03:17:27;;;;;;;21.27;18.52;;;;;;;-145.63;63.41;38742.66;5063447;28;20063;-69
2023/07/26 03:19:53;;;;;;;21.50;16.38;;;;;;;-145.63;63.20;38703.53;5065995;28;20441;-69
2023/07/26 03:22:18;;;;;;;18.60;16.50;;;;;;;-145.63;62.75;38703.53;5054098;28;20075;-69
2023/07/26 03:24:44;;;;;;;20.58;17.70;;;;;;;-145.63;62.86;38719.19;5052721;28;20025;-68
2023/07/26 03:27:10;;;;;;;19.70;17.23;;;;;;;-145.63;62.91;38654.66;5063633;28;20083;-69
2023/07/26 03:29:36;;;;;;;20.13;16.98;;;;;;;-145.63;62.39;38689.84;5046009;28;20033;-68
2023/07/26 03:32:01;;;;;;;18.63;16.33;;;;;;;-145.63;62.12;38721.13;5063032;28;20055;-69
2023/07/26 03:34:27;;;;;;;20.35;18.10;;;;;;;-145.63;62.38;38719.19;5065793;28;20352;-68
2023/07/26 03:36:53;;;;;;;20.60;17.27;;;;;;;-145.63;62.51;38682.03;5065553;28;20348;-68
2023/07/26 03:39:18;;;;;;;19.55;16.98;;;;;;;-145.63;62.65;38668.34;5062510;28;20029;-68
2023/07/26 03:41:44;;;;;;;19.17;17.27;;;;;;;-145.63;62.00;38594.03;5060183;28;20036;-68
2023/07/26 03:44:09;;;;;;;20.63;17.73;;;;;;;-145.63;61.89;38646.84;5065256;28;20060;-67
2023/07/26 03:46:35;;;;;;;23.02;18.60;;;;;;;-145.63;62.56;38660.53;5051991;28;20079;-68
2023/07/26 03:49:01;;;;;;;19.75;17.75;;;;;;;-145.63;62.14;38691.81;5054270;28;20097;-67
2023/07/26 03:51:26;;;;;;;20.50;16.90;;;;;;;-145.63;61.83;38644.88;5061311;28;20045;-67
2023/07/26 03:53:52;;;;;;;18.08;16.23;;;;;;;-145.63;60.82;38644.88;5045341;28;20037;-69
2023/07/26 03:56:18;;;;;;;18.38;16.13;;;;;;;-145.63;60.99;38652.69;5064661;28;20081;-69
2023/07/26 03:58:43;;;;;;;18.48;16.48;;;;;;;-145.63;60.61;38637.06;5065162;28;20051;-68
2023/07/26 04:01:09;;;;;;;15.93;14.48;;;;;;;-145.63;60.54;38644.88;5055168;28;20025;-69
2023/07/26 04:03:35;;;;;;;17.88;16.10;;;;;;;-145.63;60.47;38609.69;5049903;28;20100;-68
2023/07/26 04:06:00;;;;;;;18.25;16.38;;;;;;;-145.63;60.50;38611.63;5064896;28;20024;-69
2023/07/26 04:08:26;;;;;;;17.38;15.27;;;;;;;-145.63;60.53;38597.94;5064867;28;20349;-69
2023/07/26 04:10:52;;;;;;;19.40;15.57;;;;;;;-145.63;59.74;38629.22;5049022;28;20033;-69
2023/07/26 04:13:17;;;;;;;17.50;14.88;;;;;;;-145.63;59.48;38582.31;5045035;28;20025;-69
2023/07/26 04:15:43;;;;;;;17.80;15.70;;;;;;;-145.63;59.80;38549.06;5051190;28;20349;-69
2023/07/26 04:18:08;;;;;;;20.73;18.25;;;;;;;-145.63;60.38;38554.94;5057450;28;20037;-69
2023/07/26 04:20:35;;;;;;;20.83;16.80;;;;;;;-145.63;60.13;38613.59;5064933;28;20056;-68
2023/07/26 04:23:00;;;;;;;17.02;15.23;;;;;;;-145.63;59.78;38570.56;5057128;28;20087;-69
2023/07/26 04:25:26;;;;;;;19.98;16.05;;;;;;;-145.63;59.34;38511.91;5064690;28;20092;-70
2023/07/26 04:27:52;;;;;;;15.95;14.23;;;;;;;-145.63;59.17;38509.97;5056059;28;20044;-70
2023/07/26 04:30:17;;;;;;;18.48;15.88;;;;;;;-145.63;59.36;38570.56;5046941;28;20280;-69
2023/07/26 04:32:43;;;;;;;20.17;15.18;;;;;;;-145.63;58.67;38564.72;5064575;28;20024;-71
2023/07/26 04:35:09;;;;;;;17.13;15.23;;;;;;;-145.63;58.63;38515.81;5063409;28;20051;-70
2023/07/26 04:37:35;;;;;;;17.88;14.85;;;;;;;-145.63;58.70;38719.19;5064595;28;20032;-70
2023/07/26 04:40:00;;;;;;;17.75;15.95;;;;;;;-145.63;58.99;38484.53;5055854;28;20092;-70
2023/07/26 04:42:26;;;;;;;18.52;15.77;;;;;;;-145.63;58.92;38472.81;5060567;28;20048;-71
2023/07/26 04:44:52;;;;;;;32.25;26.65;;;;;;;-145.63;58.81;38639.00;5042795;28;20029;-69
2023/07/26 04:47:19;;;;;;;18.63;16.25;;;;;;;-145.63;58.30;38543.19;5063032;28;20025;-69
2023/07/26 04:49:45;;;;;;;21.75;15.10;;;;;;;-145.63;58.48;38455.22;5063191;28;20033;-69
2023/07/26 04:52:11;;;;;;;16.13;14.43;;;;;;;-145.63;58.24;38484.53;5054353;28;20341;-70
2023/07/26 04:54:36;;;;;;;19.50;16.17;;;;;;;-145.63;57.99;38476.72;5044145;28;20047;-70
2023/07/26 04:57:02;;;;;;;15.48;13.88;;;;;;;-145.63;57.41;38453.25;5056701;28;20090;-70
2023/07/26 04:59:28;;;;;;;17.77;14.73;;;;;;;-145.63;56.66;38418.06;5043888;28;20029;-70
2023/07/26 05:01:54;;;;;;;17.13;14.32;;;;;;;-145.63;57.03;38402.41;5058910;28;20306;-69
2023/07/26 05:04:19;;;;;;;16.95;14.65;;;;;;;-145.63;56.83;38406.31;5063734;28;20052;-70
2023/07/26 05:06:45;;;;;;;16.95;14.73;;;;;;;-145.63;56.70;38414.16;5057639;28;20306;-71
2023/07/26 05:09:10;;;;;;;15.35;13.75;;;;;;;-145.63;57.16;38369.19;5045012;28;20293;-70
2023/07/26 05:11:36;;;;;;;16.40;14.05;;;;;;;-145.63;56.87;38400.47;5046052;28;20021;-70
2023/07/26 05:14:02;;;;;;;19.67;14.15;;;;;;;-145.63;56.32;38355.50;5058374;28;20025;-71
2023/07/26 05:16:29;;;;;;;19.70;14.55;;;;;;;-145.63;56.59;38335.94;5063227;28;20249;-71
2023/07/26 05:18:57;;;;;;;15.05;13.38;;;;;;;-145.63;56.47;38345.72;5063387;28;20062;-70
2023/07/26 05:21:24;;;;;;;18.02;13.07;;;;;;;-145.63;55.88;38388.72;5060715;28;20298;-69
2023/07/26 05:23:50;;;;;;;17.58;13.80;;;;;;;-145.63;56.05;38386.78;5043618;28;20025;-71
2023/07/26 05:26:16;;;;;;;16.65;13.90;;;;;;;-145.63;55.78;38330.06;5061809;28;20035;-70
2023/07/26 05:28:41;;;;;;;17.20;14.35;;;;;;;-145.63;55.70;38308.56;5049543;28;20059;-70
2023/07/26 05:31:07;;;;;;;14.18;12.60;;;;;;;-145.63;55.41;38265.53;5052059;28;20029;-71
2023/07/26 05:33:33;;;;;;;17.48;13.65;;;;;;;-145.63;55.56;38300.75;5059443;28;20036;-70
2023/07/26 05:35:58;;;;;;;20.20;14.50;;;;;;;-145.63;55.33;38257.72;5047911;28;20359;-70
2023/07/26 05:38:24;;;;;;;17.40;13.13;;;;;;;-145.63;54.40;38218.63;5063325;28;20024;-71
2023/07/26 05:40:50;;;;;;;17.50;13.15;;;;;;;-145.63;53.89;38273.38;5054004;28;20017;-70
2023/07/26 05:43:18;;;;;;;16.08;13.57;;;;;;;-145.63;53.57;38257.72;5053066;28;20218;-70
2023/07/26 05:45:44;;;;;;;14.18;12.65;;;;;;;-145.63;53.78;38234.25;5043462;28;20414;-70
2023/07/26 05:48:10;;;;;;;17.88;13.18;;;;;;;-145.63;53.99;38179.50;5043919;28;20037;-69
2023/07/26 05:50:35;;;;;;;18.40;12.60;;;;;;;-145.63;53.19;38204.94;5063476;28;20074;-70
2023/07/26 05:53:01;;;;;;;16.73;12.73;;;;;;;-145.63;52.45;38230.34;5046866;28;20330;-70
2023/07/26 05:55:27;;;;;;;16.15;12.00;;;;;;;-145.63;52.71;38167.78;5054852;28;20025;-70
2023/07/26 05:57:53;;;;;;;17.35;12.18;;;;;;;-145.63;52.88;38226.44;5055260;28;20025;-70
2023/07/26 06:00:20;;;;;;;17.75;12.45;;;;;;;-145.63;53.40;38156.06;5045250;28;20059;-70
2023/07/26 06:02:45;;;;;;;15.15;12.13;;;;;;;-145.63;52.44;38171.69;5063269;28;20356;-70
2023/07/26 06:05:11;;;;;;;16.50;12.85;;;;;;;-145.63;52.43;38191.25;5045554;28;20029;-70
2023/07/26 06:07:37;;;;;;;19.23;12.73;;;;;;;-145.63;52.38;38171.69;5055674;28;20322;-70
2023/07/26 06:10:03;;;;;;;19.40;12.63;;;;;;;-145.63;52.52;38165.84;5054941;28;20337;-71
2023/07/26 06:12:30;;;;;;;16.88;12.70;;;;;;;-145.63;52.34;38216.66;5046602;28;20029;-71
2023/07/26 06:14:56;;;;;;;15.02;13.20;;;;;;;-145.63;52.37;38206.88;5045140;28;20048;-70
2023/07/26 06:17:21;;;;;;;13.32;11.85;;;;;;;-145.63;52.67;38210.81;5061963;28;20024;-69
2023/07/26 06:19:48;;;;;;;16.83;13.70;;;;;;;-145.63;52.63;38165.84;5049266;28;20036;-69
2023/07/26 06:22:14;;;;;;;14.45;12.20;;;;;;;-145.63;53.05;38165.84;5042870;28;20029;-69
2023/07/26 06:24:39;;;;;;;16.08;13.13;;;;;;;-145.63;53.29;38222.53;5047917;28;20032;-70
2023/07/26 06:27:05;;;;;;;17.35;13.05;;;;;;;-145.63;53.14;38142.38;5065649;28;20040;-70
2023/07/26 06:29:33;;;;;;;13.80;12.23;;;;;;;-145.63;52.68;38138.47;5047547;28;20322;-69
2023/07/26 06:31:58;;;;;;;16.23;12.20;;;;;;;-145.63;52.51;38142.38;5061818;28;20071;-70
2023/07/26 06:34:24;;;;;;;18.92;13.55;;;;;;;-145.63;53.28;38148.22;5056289;28;20025;-70
2023/07/26 06:36:50;;;;;;;14.02;12.30;;;;;;;-145.63;53.40;38099.34;5051760;28;20052;-70
2023/07/26 06:39:15;;;;;;;13.75;11.90;;;;;;;-145.63;52.37;38122.81;5065918;28;20032;-70
2023/07/26 06:41:41;;;;;;;19.85;11.82;;;;;;;-145.63;51.58;38109.13;5060996;28;20025;-71
2023/07/26 06:44:07;;;;;;;15.93;11.52;;;;;;;-145.63;51.65;38122.81;5050304;28;20049;-70
2023/07/26 06:46:33;;;;;;;13.65;10.77;;;;;;;-145.63;52.09;38011.38;5046945;28;20022;-71
2023/07/26 06:49:01;;;;;;;14.88;10.88;;;;;;;-145.63;50.92;38046.56;5054050;28;20052;-69
2023/07/26 06:51:27;;;;;;;12.55;10.75;;;;;;;-145.63;51.01;38017.25;5066910;28;20059;-70
2023/07/26 06:53:53;;;;;;;14.18;11.25;;;;;;;-145.63;50.72;38017.25;5066794;28;20025;-72
2023/07/26 06:56:18;;;;;;;12.38;10.68;;;;;;;-145.63;50.26;38007.47;5048944;28;20218;-71
2023/07/26 06:58:44;;;;;;;12.80;10.73;;;;;;;-145.63;50.28;37997.69;5059978;28;20045;-70
2023/07/26 07:01:20;;;;;;;17.13;11.48;;;;;;;-145.63;50.38;37995.72;5066537;28;20032;-68
2023/07/26 07:03:46;;;;;;;17.55;11.63;;;;;;;-145.63;50.58;37982.03;5061318;28;20047;-70
2023/07/26 07:06:14;;;;;;;12.32;10.02;;;;;;;-145.63;50.43;37458.13;5046547;28;20333;-71
2023/07/26 07:08:40;;;;;;;13.85;11.25;;;;;;;-145.63;49.86;37952.72;5066384;28;20067;-70
2023/07/26 07:11:06;;;;;;;13.98;11.32;;;;;;;-145.63;49.53;37993.78;5050627;28;20076;-70
2023/07/26 07:13:38;;;;;;;13.98;11.32;;;;;;;-145.63;50.05;37954.69;5046483;28;20088;-72
2023/07/26 07:16:04;;;;;;;14.02;11.32;;;;;;;-145.63;49.59;37958.59;5053622;28;20037;-71
2023/07/26 07:18:30;;;;;;;12.65;10.60;;;;;;;-145.63;49.91;37907.75;5063475;28;20056;-69
2023/07/26 07:20:57;;;;;;;12.70;11.35;;;;;;;-145.63;49.59;37927.31;5046218;28;20188;-69
2023/07/26 07:23:24;;;;;;;15.85;11.25;;;;;;;-145.63;49.42;37950.75;5063472;28;20361;-70
2023/07/26 07:25:50;;;;;;;12.38;11.07;;;;;;;-145.63;48.83;37944.91;5066109;28;20328;-70
2023/07/26 07:28:16;;;;;;;15.70;11.90;;;;;;;-145.63;48.90;37956.63;5055723;28;20062;-70
2023/07/26 07:30:42;;;;;;;14.65;11.27;;;;;;;-145.63;49.43;37972.28;5049973;28;20025;-69
2023/07/26 07:33:07;;;;;;;13.52;11.45;;;;;;;-145.63;49.11;37944.91;5064771;28;20024;-70
2023/07/26 07:35:33;;;;;;;13.68;10.88;;;;;;;-145.63;49.98;37925.34;5046343;28;20033;-71
2023/07/26 07:37:59;;;;;;;14.73;11.38;;;;;;;-145.63;49.57;37956.63;5059535;28;20020;-68
2023/07/26 07:40:24;;;;;;;12.15;10.93;;;;;;;-145.63;49.27;37901.88;5059008;28;20108;-70
2023/07/26 07:42:50;;;;;;;14.68;11.13;;;;;;;-145.63;49.20;37941.00;5064888;28;20029;-70
2023/07/26 07:45:16;;;;;;;12.13;10.63;;;;;;;-145.63;49.88;37858.88;5064205;28;20067;-70
2023/07/26 07:47:42;;;;;;;12.63;11.10;;;;;;;-145.63;49.42;37909.72;5045906;28;20074;-68
2023/07/26 07:50:07;;;;;;;13.23;11.32;;;;;;;-145.63;48.87;37925.34;5045579;28;20025;-67
2023/07/26 07:52:33;;;;;;;15.55;11.55;;;;;;;-145.63;48.69;37917.53;5056845;28;20322;-68
2023/07/26 07:54:59;;;;;;;14.57;10.98;;;;;;;-145.63;49.10;37843.25;5059127;28;20029;-67
2023/07/26 07:57:25;;;;;;;12.68;10.93;;;;;;;-145.63;48.43;37866.69;5047155;28;20021;-68
2023/07/26 07:59:50;;;;;;;13.77;11.45;;;;;;;-145.63;48.52;37886.25;5064478;28;20035;-69
2023/07/26 08:02:16;;;;;;;14.07;10.93;;;;;;;-145.63;48.79;37897.97;5062131;28;20104;-69
2023/07/26 08:04:42;;;;;;;15.75;11.23;;;;;;;-145.63;48.88;37870.59;5052145;28;20036;-67
2023/07/26 08:07:08;;;;;;;13.38;11.52;;;;;;;-145.63;49.02;37845.19;5052621;28;20029;-67
2023/07/26 08:09:34;;;;;;;15.80;11.05;;;;;;;-145.63;48.90;37843.25;5062532;28;20052;-67
2023/07/26 08:12:00;;;;;;;13.95;11.55;;;;;;;-145.63;48.50;37874.53;5045354;28;20032;-66
2023/07/26 08:14:27;;;;;;;11.70;10.50;;;;;;;-145.63;48.88;37833.47;5063799;28;20020;-67
2023/07/26 08:16:53;;;;;;;16.25;11.30;;;;;;;-145.63;48.69;37792.41;5051481;28;20097;-67
2023/07/26 08:19:19;;;;;;;15.98;12.35;;;;;;;-145.63;48.90;37827.59;5054356;28;20025;-66
2023/07/26 08:21:44;;;;;;;15.05;11.20;;;;;;;-145.63;48.98;37860.84;5060951;28;20029;-68
2023/07/26 08:24:10;;;;;;;12.95;11.65;;;;;;;-145.63;48.62;37839.31;5043996;28;20040;-66
2023/07/26 08:26:36;;;;;;;13.18;11.70;;;;;;;-145.63;48.70;37813.91;5064751;28;20080;-68
2023/07/26 08:29:02;;;;;;;15.40;11.55;;;;;;;-145.63;48.60;37829.56;5050143;28;20030;-68
2023/07/26 08:31:27;;;;;;;14.80;11.98;;;;;;;-145.63;48.41;37800.22;5055600;28;20198;-68
2023/07/26 08:33:53;;;;;;;17.40;12.13;;;;;;;-145.63;49.08;37802.19;5059579;28;20037;-68
2023/07/26 08:36:19;;;;;;;16.02;12.10;;;;;;;-145.63;48.50;37767.00;5045157;28;20063;-67
2023/07/26 08:38:45;;;;;;;13.52;10.65;;;;;;;-145.63;48.67;37800.22;5064551;28;20029;-67
2023/07/26 08:41:10;;;;;;;14.77;11.88;;;;;;;-145.63;48.90;37735.72;5058374;28;20033;-67
2023/07/26 08:43:37;;;;;;;14.73;11.55;;;;;;;-145.63;48.64;37751.34;5053653;28;20059;-67
2023/07/26 08:46:06;;;;;;;17.13;11.80;;;;;;;-145.63;47.93;37770.91;5026483;28;20044;-67
2023/07/26 08:48:37;;;;;;;13.13;11.35;;;;;;;-145.63;48.14;37798.28;5046590;28;20025;-68
2023/07/26 08:51:05;;;;;;;12.80;11.23;;;;;;;-145.63;48.22;37786.53;5064516;28;20021;-68
2023/07/26 08:53:33;;;;;;;16.55;11.45;;;;;;;-145.63;48.55;37725.94;5028199;28;20033;-68
2023/07/26 08:55:59;;;;;;;16.35;11.52;;;;;;;-145.63;48.31;37776.78;5053157;28;20025;-69
2023/07/26 08:58:25;;;;;;;18.27;12.85;;;;;;;-145.63;48.37;37698.56;5044820;28;20057;-68
2023/07/26 09:00:51;;;;;;;19.95;12.10;;;;;;;-145.63;49.48;37784.59;5049744;28;20029;-67
2023/07/26 09:03:17;;;;;;;15.18;11.07;;;;;;;-145.63;49.21;37774.81;5061640;28;20309;-68
2023/07/26 09:05:45;;;;;;;14.93;11.27;;;;;;;-145.63;49.02;37741.56;5044100;28;20029;-69
2023/07/26 09:08:11;;;;;;;16.77;11.85;;;;;;;-145.63;48.39;37780.69;5059554;28;20029;-67
2023/07/26 09:10:40;;;;;;;14.10;10.85;;;;;;;-145.63;48.83;37798.28;5046913;28;20052;-68
2023/07/26 09:13:13;;;;;;;16.05;11.55;;;;;;;-145.63;48.58;37811.97;5050925;28;20044;-68
2023/07/26 09:15:41;;;;;;;16.17;11.27;;;;;;;-145.63;48.35;37806.09;5061134;28;20029;-66
2023/07/26 09:18:12;;;;;;;13.40;11.45;;;;;;;-145.63;48.81;37784.59;5043525;28;20040;-67
2023/07/26 09:20:38;;;;;;;16.48;11.68;;;;;;;-145.63;48.81;37827.59;5061755;28;20217;-68
2023/07/26 09:23:05;;;;;;;14.05;10.23;;;;;;;-145.63;49.40;37862.78;5063757;28;20079;-67
2023/07/26 09:25:34;;;;;;;14.80;11.75;;;;;;;-145.63;49.61;37823.69;5063926;28;20098;-66
2023/07/26 09:28:01;;;;;;;12.98;11.13;;;;;;;-145.63;49.57;37901.88;5061052;28;20025;-67
2023/07/26 09:30:27;;;;;;;14.48;11.40;;;;;;;-145.63;49.82;37864.75;5063711;28;20036;-68
2023/07/26 09:32:56;;;;;;;17.13;12.25;;;;;;;-145.63;49.82;37872.56;5063502;28;20024;-66
2023/07/26 09:35:22;;;;;;;15.55;11.90;;;;;;;-145.63;49.64;37878.44;5063733;28;20043;-67
2023/07/26 09:37:48;;;;;;;15.77;11.98;;;;;;;-145.63;49.63;37882.34;5051587;28;20092;-66
2023/07/26 09:40:14;;;;;;;12.82;10.90;;;;;;;-145.63;49.58;37882.34;5049183;28;20097;-67
2023/07/26 09:42:47;;;;;;;15.80;12.25;;;;;;;-145.63;49.84;37888.22;5044930;28;20060;-67
2023/07/26 09:45:20;;;;;;;13.38;12.07;;;;;;;-145.63;50.33;37886.25;5063479;28;20029;-67
2023/07/26 09:47:46;;;;;;;16.48;12.85;;;;;;;-145.63;50.88;37911.66;5043734;28;20022;-67
2023/07/26 09:50:25;;;;;;;16.00;12.40;;;;;;;-145.63;50.59;37860.84;5058498;28;20064;-67
2023/07/26 09:52:55;;;;;;;15.25;12.02;;;;;;;-145.63;51.21;37919.47;5063019;28;20036;-67
2023/07/26 09:55:31;;;;;;;18.15;11.57;;;;;;;-145.63;51.15;37851.06;5055039;28;20337;-66
2023/07/26 09:57:57;;;;;;;18.58;12.70;;;;;;;-145.63;51.06;37892.13;5048078;28;20036;-67
2023/07/26 10:00:26;;;;;;;13.93;12.38;;;;;;;-145.63;51.68;37921.44;5061441;28;20205;-68
2023/07/26 10:03:06;;;;;;;16.23;12.73;;;;;;;-145.63;51.46;37884.28;5042027;28;20067;-67
2023/07/26 10:05:42;;;;;;;13.00;11.38;;;;;;;-145.63;51.58;37993.78;5043157;28;20030;-67
2023/07/26 10:08:08;;;;;;;17.52;12.68;;;;;;;-145.63;51.66;37905.81;5057276;28;20079;-67
2023/07/26 10:10:34;;;;;;;18.65;13.07;;;;;;;-145.63;51.76;37890.16;5053133;28;20022;-67
2023/07/26 10:13:01;;;;;;;12.93;11.63;;;;;;;-145.63;51.14;37919.47;5048617;28;20092;-68
2023/07/26 10:15:30;;;;;;;16.73;12.85;;;;;;;-145.63;51.26;37872.56;5062696;28;20037;-68
2023/07/26 10:17:57;;;;;;;16.10;12.73;;;;;;;-145.63;51.58;37892.13;5042008;28;20092;-67
2023/07/26 10:20:23;;;;;;;14.32;12.50;;;;;;;-145.63;51.56;37866.69;5059567;28;20032;-68
2023/07/26 10:22:51;;;;;;;15.38;12.10;;;;;;;-145.63;51.31;37882.34;5051119;28;20032;-67
2023/07/26 10:25:17;;;;;;;14.75;12.00;;;;;;;-145.63;51.25;37851.06;5050351;28;20360;-67
2023/07/26 10:27:45;;;;;;;13.43;12.02;;;;;;;-145.63;51.02;37870.59;5060017;28;20021;-67
2023/07/26 10:30:11;;;;;;;15.15;11.63;;;;;;;-145.63;51.09;37854.97;5043236;28;20033;-67
2023/07/26 10:32:47;;;;;;;17.02;12.95;;;;;;;-145.63;52.05;37882.34;5062843;28;20320;-67
2023/07/26 10:35:34;;;;;;;16.35;12.23;;;;;;;-145.63;52.04;37880.38;5047526;28;20025;-67
2023/07/26 10:38:03;;;;;;;16.10;11.43;;;;;;;-145.63;51.90;37800.22;5056001;28;20029;-67
2023/07/26 10:40:37;;;;;;;19.00;12.80;;;;;;;-145.63;52.23;37874.53;5057513;28;20518;-66
2023/07/26 10:43:37;;;;;;;14.95;13.20;;;;;;;-145.63;53.78;37894.06;5057403;28;20030;-68
2023/07/26 10:46:09;;;;;;;15.95;13.65;;;;;;;-145.63;53.80;37939.03;5042749;28;20199;-67
2023/07/26 10:48:37;;;;;;;;;;;;;;;-145.63;54.83;37890.16;5044850;28;20021;-67
2023/07/26 10:51:23;;;;;;;16.35;14.52;;;;;;;-145.63;54.67;37909.72;5062806;28;19951;-67
2023/07/26 10:53:49;;;;;;;17.33;14.68;;;;;;;-145.63;54.69;37939.03;5043049;28;20159;-68
2023/07/26 10:56:21;;;;;;;17.80;15.00;;;;;;;-145.63;55.64;37858.88;5039919;28;20324;-68
2023/07/26 10:58:58;;;;;;;20.35;14.77;;;;;;;-145.63;56.28;37919.47;5051764;28;20075;-66
2023/07/26 11:01:46;;;;;;;18.13;14.85;;;;;;;-145.63;57.49;37972.28;5050548;28;20128;-66